Time;durP1;ratioP1;P1;durP2;ratioP2;P2;SDS_P1;SDS_P2;PMS_P1;PMS_P2;Temp;Humidity;BMP_temperature;BMP_pressure;BME280_temperature;BME280_humidity;BME280_pressure;Samples;Min_cycle;Max_cycle;Signal;HPM_P1;HPM_P2
2022/05/06 00:02:07;;;;;;;22.23;13.68;;;13.60;90.10;;;;;;4955097;29;20038;-15
2022/05/06 00:04:34;;;;;;;31.58;16.40;;;13.60;90.00;;;;;;4954892;29;20502;-17
2022/05/06 00:07:00;;;;;;;26.35;15.98;;;13.60;90.10;;;;;;4954898;28;20035;-14
2022/05/06 00:09:26;;;;;;;33.10;17.52;;;13.60;90.20;;;;;;4955028;28;20479;-17
2022/05/06 00:11:52;;;;;;;27.35;15.90;;;13.60;90.50;;;;;;4955170;28;20027;-14
2022/05/06 00:14:19;;;;;;;32.30;17.88;;;13.60;90.80;;;;;;4955016;29;20023;-14
2022/05/06 00:16:45;;;;;;;36.85;19.92;;;13.70;90.90;;;;;;4955681;29;20034;-16
2022/05/06 00:19:12;;;;;;;33.53;18.08;;;13.60;91.00;;;;;;4955426;29;20055;-15
2022/05/06 00:21:38;;;;;;;27.35;16.63;;;13.60;91.20;;;;;;4954930;28;20023;-14
2022/05/06 00:24:04;;;;;;;36.63;20.27;;;13.60;91.30;;;;;;4954846;29;20027;-14
2022/05/06 00:26:31;;;;;;;34.58;19.17;;;13.60;91.60;;;;;;4954341;28;20067;-15
2022/05/06 00:28:57;;;;;;;34.78;18.63;;;13.60;91.70;;;;;;4955191;29;20484;-14
2022/05/06 00:31:22;;;;;;;36.65;18.52;;;13.60;91.70;;;;;;4955158;28;20023;-15
2022/05/06 00:33:48;;;;;;;33.38;18.50;;;13.60;91.90;;;;;;4954969;29;20054;-15
2022/05/06 00:36:14;;;;;;;33.45;17.70;;;13.60;91.90;;;;;;4953448;29;20090;-15
2022/05/06 00:38:42;;;;;;;37.08;20.00;;;13.60;92.00;;;;;;4954727;29;20034;-16
2022/05/06 00:41:09;;;;;;;38.30;19.33;;;13.60;92.00;;;;;;4954969;29;20019;-15
2022/05/06 00:43:42;;;;;;;34.78;19.50;;;13.60;92.10;;;;;;4954610;28;20403;-14
2022/05/06 00:46:12;;;;;;;;;;;13.60;92.10;;;;;;4955206;28;20027;-15
2022/05/06 00:48:43;;;;;;;34.58;19.23;;;13.60;92.20;;;;;;4954946;28;19980;-15
2022/05/06 00:51:10;;;;;;;39.08;20.40;;;13.60;92.40;;;;;;4953534;29;20020;-15
2022/05/06 00:53:36;;;;;;;32.67;18.38;;;13.50;92.30;;;;;;4954671;28;20484;-15
2022/05/06 00:56:04;;;;;;;31.55;17.92;;;13.50;92.40;;;;;;4953414;29;20031;-16
2022/05/06 00:58:33;;;;;;;28.92;17.20;;;13.50;92.30;;;;;;4954324;28;20071;-16
2022/05/06 01:01:05;;;;;;;35.67;19.08;;;13.50;92.30;;;;;;4953595;29;20038;-15
2022/05/06 01:03:31;;;;;;;29.10;17.30;;;13.40;92.30;;;;;;4954845;29;20035;-16
2022/05/06 01:05:58;;;;;;;29.10;17.80;;;13.50;92.40;;;;;;4954748;29;20028;-15
2022/05/06 01:08:25;;;;;;;28.17;17.00;;;13.50;92.40;;;;;;4954669;28;20054;-15
2022/05/06 01:10:50;;;;;;;28.83;16.60;;;13.40;92.40;;;;;;4953252;29;20034;-16
2022/05/06 01:13:18;;;;;;;27.02;16.30;;;13.40;92.40;;;;;;4954613;29;20039;-15
2022/05/06 01:15:45;;;;;;;22.83;14.07;;;13.40;92.30;;;;;;4954710;29;20032;-15
2022/05/06 01:18:12;;;;;;;21.83;13.63;;;13.40;92.20;;;;;;4956187;28;20378;-16
2022/05/06 01:20:46;;;;;;;19.83;12.15;;;13.30;92.10;;;;;;4957746;28;20020;-15
2022/05/06 01:23:12;;;;;;;21.15;13.57;;;13.30;92.10;;;;;;4957904;28;20423;-15
2022/05/06 01:25:38;;;;;;;19.40;13.05;;;13.20;92.00;;;;;;4957914;28;20083;-15
2022/05/06 01:28:06;;;;;;;20.63;13.00;;;13.20;92.00;;;;;;4957338;29;20043;-14
2022/05/06 01:30:45;;;;;;;16.83;12.18;;;13.20;92.00;;;;;;4957627;29;20059;-14
2022/05/06 01:33:14;;;;;;;15.95;11.00;;;13.10;92.00;;;;;;4958046;29;20027;-15
2022/05/06 01:35:46;;;;;;;17.17;11.75;;;13.10;91.90;;;;;;4957583;29;20483;-15
2022/05/06 01:38:18;;;;;;;19.45;11.07;;;13.10;91.90;;;;;;4957898;29;20083;-15
2022/05/06 01:41:02;;;;;;;16.50;11.23;;;13.00;91.90;;;;;;4957988;28;20031;-15
2022/05/06 01:43:38;;;;;;;14.90;10.20;;;13.00;91.80;;;;;;4957381;28;20487;-15
2022/05/06 01:46:06;;;;;;;19.08;11.32;;;13.00;91.80;;;;;;4957473;28;20479;-14
2022/05/06 01:48:34;;;;;;;15.68;10.65;;;13.00;91.80;;;;;;4957129;28;20039;-14
2022/05/06 01:51:02;;;;;;;19.65;11.88;;;13.00;91.80;;;;;;4957770;28;20023;-15
2022/05/06 01:53:28;;;;;;;17.95;11.50;;;13.00;91.90;;;;;;4957283;28;20558;-15
2022/05/06 01:55:54;;;;;;;15.25;10.02;;;12.90;92.00;;;;;;4957539;29;20043;-16
2022/05/06 01:58:20;;;;;;;17.27;10.15;;;12.90;92.00;;;;;;4956950;29;20023;-15
2022/05/06 02:00:46;;;;;;;16.55;10.45;;;12.90;92.00;;;;;;4957112;28;20174;-13
2022/05/06 02:05:57;;;;;;;16.85;10.43;;;12.90;92.10;;;;;;4957403;29;20073;-15
2022/05/06 02:08:23;;;;;;;18.90;11.15;;;12.90;92.10;;;;;;4955527;29;20031;-15
2022/05/06 02:10:49;;;;;;;16.23;11.10;;;13.00;92.10;;;;;;4957255;28;20443;-15
2022/05/06 02:13:15;;;;;;;17.38;11.77;;;12.90;92.10;;;;;;4957327;29;20479;-15
2022/05/06 02:15:41;;;;;;;20.25;12.07;;;12.90;92.10;;;;;;4956864;29;20039;-14
2022/05/06 02:18:09;;;;;;;19.35;12.10;;;12.90;92.20;;;;;;4956848;29;20468;-15
2022/05/06 02:20:37;;;;;;;21.33;12.80;;;12.90;92.20;;;;;;4956641;28;20491;-15
2022/05/06 02:23:03;;;;;;;21.23;13.23;;;12.90;92.30;;;;;;4956960;29;20046;-14
2022/05/06 02:25:30;;;;;;;19.58;12.52;;;12.90;92.40;;;;;;4956895;29;20015;-14
2022/05/06 02:27:57;;;;;;;20.88;12.70;;;12.90;92.40;;;;;;4956249;29;20055;-15
2022/05/06 02:33:13;;;;;;;20.95;13.70;;;12.90;92.40;;;;;;4956648;29;20034;-14
2022/05/06 02:35:41;;;;;;;19.55;13.05;;;13.00;92.40;;;;;;4956834;29;20489;-14
2022/05/06 02:38:09;;;;;;;20.92;12.48;;;12.90;92.40;;;;;;4956448;28;20027;-14
2022/05/06 02:40:39;;;;;;;24.85;12.88;;;13.00;92.50;;;;;;4956469;28;20032;-17
2022/05/06 02:43:06;;;;;;;21.73;13.82;;;13.00;92.60;;;;;;4956590;28;20024;-16
2022/05/06 02:45:33;;;;;;;21.85;13.77;;;13.00;92.70;;;;;;4956521;29;20028;-17
2022/05/06 02:48:00;;;;;;;25.30;14.60;;;12.90;92.60;;;;;;4956356;29;20035;-16
2022/05/06 02:50:26;;;;;;;22.33;13.40;;;12.90;92.70;;;;;;4955978;29;20427;-16
2022/05/06 02:52:53;;;;;;;23.45;13.32;;;12.90;92.80;;;;;;4956742;29;20030;-16
2022/05/06 02:55:20;;;;;;;23.10;12.77;;;12.90;92.80;;;;;;4956250;29;20443;-17
2022/05/06 02:57:47;;;;;;;22.13;14.57;;;13.00;92.70;;;;;;4956261;29;20446;-16
2022/05/06 03:00:14;;;;;;;24.10;13.77;;;13.00;92.70;;;;;;4956282;28;20083;-27
2022/05/06 03:02:40;;;;;;;25.13;14.75;;;13.00;92.80;;;;;;4956465;29;20031;-15
2022/05/06 03:05:06;;;;;;;27.10;15.68;;;13.00;92.80;;;;;;4955976;28;20063;-16
2022/05/06 03:07:32;;;;;;;25.85;16.25;;;13.10;92.70;;;;;;4955852;29;20078;-15
2022/05/06 03:09:58;;;;;;;27.17;16.00;;;13.10;92.80;;;;;;4955804;29;20073;-15
2022/05/06 03:12:29;;;;;;;28.00;16.23;;;13.10;92.70;;;;;;4955587;28;20027;-16
2022/05/06 03:14:56;;;;;;;30.58;16.50;;;13.00;92.70;;;;;;4955855;29;20057;-16
2022/05/06 03:17:22;;;;;;;28.17;16.65;;;13.10;92.80;;;;;;4955953;29;20423;-15
2022/05/06 03:19:47;;;;;;;29.70;17.33;;;13.10;92.80;;;;;;4955749;29;20030;-15
2022/05/06 03:22:16;;;;;;;28.73;16.67;;;13.10;92.80;;;;;;4955388;29;20074;-18
2022/05/06 03:24:45;;;;;;;26.48;15.63;;;13.10;92.90;;;;;;4955658;28;20483;-14
2022/05/06 03:29:57;;;;;;;27.27;16.15;;;13.10;92.80;;;;;;4975260;28;20078;-15
2022/05/06 03:32:24;;;;;;;28.70;15.93;;;13.10;92.80;;;;;;4974716;28;20117;-14
2022/05/06 03:34:50;;;;;;;29.23;16.98;;;13.00;92.80;;;;;;4975137;28;20105;-14
2022/05/06 03:37:16;;;;;;;25.77;15.55;;;13.10;92.80;;;;;;4975062;28;20557;-15
2022/05/06 03:39:42;;;;;;;28.05;16.17;;;13.10;92.80;;;;;;4974769;28;20514;-15
2022/05/06 03:42:08;;;;;;;26.95;17.00;;;13.10;92.80;;;;;;4974295;28;20046;-14
2022/05/06 03:44:34;;;;;;;26.20;15.95;;;13.00;92.70;;;;;;4974779;28;20187;-14
2022/05/06 03:47:01;;;;;;;24.33;15.45;;;13.00;92.60;;;;;;4974890;28;20090;-15
2022/05/06 03:49:26;;;;;;;22.73;13.75;;;13.00;92.60;;;;;;4974594;28;20035;-15
2022/05/06 03:51:52;;;;;;;21.42;13.43;;;13.00;92.50;;;;;;4974579;28;20027;-14
2022/05/06 03:54:18;;;;;;;22.08;14.15;;;13.00;92.50;;;;;;4974313;28;20061;-14
2022/05/06 03:56:44;;;;;;;23.30;15.57;;;13.00;92.40;;;;;;4975140;28;20030;-14
2022/05/06 03:59:10;;;;;;;22.30;14.57;;;12.90;92.40;;;;;;4974811;28;20490;-14
2022/05/06 04:01:37;;;;;;;23.30;14.55;;;12.90;92.40;;;;;;4974488;28;20121;-16
2022/05/06 04:04:03;;;;;;;24.30;15.50;;;12.90;92.50;;;;;;4973234;28;20478;-14
2022/05/06 04:06:29;;;;;;;20.05;13.38;;;12.90;92.50;;;;;;4974144;28;20393;-14
2022/05/06 04:08:55;;;;;;;24.73;15.48;;;12.90;92.50;;;;;;4974541;28;20023;-15
2022/05/06 04:11:21;;;;;;;24.20;15.80;;;12.90;92.50;;;;;;4974624;28;20448;-14
2022/05/06 04:13:47;;;;;;;25.05;14.77;;;12.80;92.60;;;;;;4974296;28;20054;-15
2022/05/06 04:16:14;;;;;;;24.58;15.55;;;12.90;92.60;;;;;;4974277;28;20518;-17
2022/05/06 04:18:40;;;;;;;19.33;12.90;;;12.90;92.70;;;;;;4974577;28;20031;-15
2022/05/06 04:23:51;;;;;;;22.55;14.55;;;12.90;92.60;;;;;;4974582;28;20093;-14
2022/05/06 04:26:17;;;;;;;20.65;13.98;;;12.90;92.60;;;;;;4974201;28;20035;-14
2022/05/06 04:28:44;;;;;;;25.33;15.60;;;12.90;92.50;;;;;;4974063;28;20101;-14
2022/05/06 04:31:11;;;;;;;24.63;15.13;;;12.90;92.50;;;;;;4974176;28;20486;-15
2022/05/06 04:33:41;;;;;;;22.58;14.27;;;12.80;92.50;;;;;;4974460;28;20134;-15
2022/05/06 04:36:07;;;;;;;25.25;14.68;;;12.80;92.50;;;;;;4974609;28;20030;-14
2022/05/06 04:38:34;;;;;;;22.30;14.40;;;12.80;92.50;;;;;;4972702;28;20031;-15
2022/05/06 04:41:01;;;;;;;22.42;13.90;;;12.90;92.40;;;;;;4974361;28;20045;-15
2022/05/06 04:43:28;;;;;;;22.75;14.73;;;12.80;92.50;;;;;;4973971;28;20540;-15
2022/05/06 04:45:54;;;;;;;28.15;16.15;;;12.90;92.40;;;;;;4974280;28;20027;-14
2022/05/06 04:48:21;;;;;;;20.80;13.68;;;12.90;92.50;;;;;;4974062;28;20038;-14
2022/05/06 04:50:49;;;;;;;23.80;15.02;;;12.90;92.50;;;;;;4974000;28;20035;-14
2022/05/06 04:53:16;;;;;;;23.40;14.57;;;12.90;92.50;;;;;;4975886;28;20447;-14
2022/05/06 04:55:46;;;;;;;23.27;13.63;;;12.90;92.40;;;;;;4977822;28;20391;-15
2022/05/06 04:58:15;;;;;;;20.50;13.70;;;12.90;92.40;;;;;;4977593;28;20466;-14
2022/05/06 05:00:41;;;;;;;21.67;14.30;;;12.90;92.40;;;;;;4977595;28;20494;-13
2022/05/06 05:03:08;;;;;;;22.20;14.52;;;12.90;92.20;;;;;;4977556;28;20542;-14
2022/05/06 05:05:33;;;;;;;23.92;14.90;;;12.90;92.20;;;;;;4977799;28;20490;-14
2022/05/06 05:08:02;;;;;;;22.23;13.82;;;12.90;92.20;;;;;;4977471;28;20089;-14
2022/05/06 05:10:28;;;;;;;23.05;15.35;;;12.90;92.10;;;;;;4977415;28;20081;-15
2022/05/06 05:12:54;;;;;;;24.48;15.75;;;13.00;92.10;;;;;;4977308;28;20498;-15
2022/05/06 05:15:20;;;;;;;21.90;14.82;;;13.00;92.10;;;;;;4977329;28;20023;-14
2022/05/06 05:17:47;;;;;;;22.42;15.10;;;13.00;92.00;;;;;;4977576;28;20018;-14
2022/05/06 05:20:14;;;;;;;22.85;15.52;;;13.00;92.00;;;;;;4977312;28;20035;-15
2022/05/06 05:22:40;;;;;;;22.90;14.20;;;13.00;91.90;;;;;;4977195;28;20034;-15
2022/05/06 05:25:08;;;;;;;22.00;15.50;;;13.10;92.00;;;;;;4977448;28;20483;-15
2022/05/06 05:27:36;;;;;;;23.48;14.85;;;13.10;91.90;;;;;;4975548;28;20043;-14
2022/05/06 05:30:04;;;;;;;23.67;16.08;;;13.10;91.90;;;;;;4977089;28;20027;-14
2022/05/06 05:32:30;;;;;;;22.70;15.15;;;13.20;91.90;;;;;;4976907;28;20057;-15
2022/05/06 05:34:56;;;;;;;24.05;14.95;;;13.20;91.80;;;;;;4977284;28;20502;-16
2022/05/06 05:37:22;;;;;;;23.10;15.50;;;13.20;91.80;;;;;;4977274;28;20034;-17
2022/05/06 05:39:48;;;;;;;26.45;16.27;;;13.30;91.70;;;;;;4977201;28;20102;-14
2022/05/06 05:42:27;;;;;;;25.52;16.88;;;13.30;91.60;;;;;;4976695;28;20027;-15
2022/05/06 05:50:23;;;;;;;21.75;14.65;;;13.40;91.30;;;;;;4976951;28;20037;-15
2022/05/06 05:52:49;;;;;;;27.20;17.63;;;13.40;91.40;;;;;;4976867;28;20035;-15
2022/05/06 05:55:15;;;;;;;22.50;15.43;;;13.50;91.40;;;;;;4976617;28;20038;-14
2022/05/06 05:57:41;;;;;;;27.70;19.00;;;13.60;91.10;;;;;;4976776;28;20046;-15
2022/05/06 06:00:08;;;;;;;26.05;17.85;;;13.60;91.10;;;;;;4976497;28;20090;-14
2022/05/06 06:02:34;;;;;;;28.55;18.75;;;13.60;91.10;;;;;;4975099;28;20023;-15
2022/05/06 06:05:00;;;;;;;26.25;18.35;;;13.60;91.00;;;;;;4976422;28;20033;-14
2022/05/06 06:07:26;;;;;;;24.50;16.65;;;13.60;90.80;;;;;;4976529;28;20039;-14
2022/05/06 06:09:52;;;;;;;26.23;17.52;;;13.70;90.80;;;;;;4976527;28;20027;-15
2022/05/06 06:12:18;;;;;;;21.83;15.15;;;13.70;90.80;;;;;;4975998;28;20023;-15
2022/05/06 06:14:44;;;;;;;22.33;15.82;;;13.80;90.60;;;;;;4976559;28;20101;-14
2022/05/06 06:17:10;;;;;;;21.13;15.13;;;13.80;90.50;;;;;;4976766;28;20034;-14
2022/05/06 06:19:36;;;;;;;21.92;14.40;;;13.80;90.60;;;;;;4976171;28;20479;-14
2022/05/06 06:22:02;;;;;;;25.90;17.88;;;13.90;90.60;;;;;;4976101;28;20034;-14
2022/05/06 06:24:30;;;;;;;22.40;15.77;;;13.90;90.60;;;;;;4976185;28;20049;-14
2022/05/06 06:26:56;;;;;;;18.98;12.70;;;14.00;90.40;;;;;;4976021;28;20347;-15
2022/05/06 06:29:22;;;;;;;18.88;13.45;;;14.00;90.30;;;;;;4976228;28;20053;-14
2022/05/06 06:31:47;;;;;;;22.05;14.98;;;14.10;90.30;;;;;;4976248;28;20035;-14
2022/05/06 06:34:13;;;;;;;20.42;12.63;;;14.10;90.30;;;;;;4975639;28;20360;-16
2022/05/06 06:36:39;;;;;;;18.50;13.32;;;14.10;90.00;;;;;;4975841;28;20033;-15
2022/05/06 06:39:05;;;;;;;21.08;14.25;;;14.20;89.80;;;;;;4975808;28;20382;-14
2022/05/06 06:41:31;;;;;;;21.75;14.07;;;14.20;89.80;;;;;;4974558;28;20467;-14
2022/05/06 06:43:57;;;;;;;22.65;14.10;;;14.20;89.70;;;;;;4974423;28;20441;-14
2022/05/06 06:46:23;;;;;;;23.33;15.38;;;14.20;89.70;;;;;;4975447;28;20031;-14
2022/05/06 06:48:49;;;;;;;21.30;15.02;;;14.30;89.70;;;;;;4975541;28;20027;-14
2022/05/06 06:51:15;;;;;;;23.00;16.08;;;14.30;89.60;;;;;;4975797;28;20074;-14
2022/05/06 06:53:41;;;;;;;17.23;13.27;;;14.30;89.40;;;;;;4975520;28;20031;-14
2022/05/06 06:56:07;;;;;;;17.50;13.25;;;14.40;89.40;;;;;;4975825;28;20043;-15
2022/05/06 06:58:33;;;;;;;22.48;14.73;;;14.40;89.40;;;;;;4975485;28;20039;-14
2022/05/06 07:00:59;;;;;;;20.63;13.93;;;14.40;89.30;;;;;;4975732;28;20035;-14
2022/05/06 07:03:25;;;;;;;24.27;17.13;;;14.40;89.00;;;;;;4975359;28;20019;-14
2022/05/06 07:14:04;;;;;;;20.40;14.57;;;14.40;89.10;;;;;;4975534;28;19957;-15
2022/05/06 07:16:30;;;;;;;22.40;15.95;;;14.50;89.40;;;;;;4974375;28;20039;-15
2022/05/06 07:18:56;;;;;;;21.83;15.63;;;14.50;89.00;;;;;;4975155;28;20030;-14
2022/05/06 07:21:22;;;;;;;22.27;15.93;;;14.50;89.40;;;;;;4975044;28;20034;-15
2022/05/06 07:23:48;;;;;;;23.50;15.13;;;14.60;89.40;;;;;;4975322;28;20054;-14
2022/05/06 07:26:14;;;;;;;23.70;16.00;;;14.60;89.20;;;;;;4975099;28;20494;-15
2022/05/06 07:28:40;;;;;;;23.67;15.85;;;14.60;88.90;;;;;;4974703;28;20498;-14
2022/05/06 07:31:06;;;;;;;25.08;16.75;;;14.50;88.60;;;;;;4974887;28;20035;-15
2022/05/06 07:33:32;;;;;;;21.73;15.95;;;14.60;89.30;;;;;;4974846;28;20023;-15
2022/05/06 07:35:59;;;;;;;23.63;16.20;;;14.60;89.20;;;;;;4974885;28;20069;-16
2022/05/06 07:38:25;;;;;;;22.48;16.13;;;14.60;89.00;;;;;;4974619;28;20146;-15
2022/05/06 07:40:51;;;;;;;21.15;15.32;;;14.60;88.80;;;;;;4974726;28;20105;-16
2022/05/06 07:43:17;;;;;;;23.75;15.95;;;14.60;89.00;;;;;;4974887;28;20125;-15
2022/05/06 07:45:43;;;;;;;20.88;15.05;;;14.70;89.10;;;;;;4974638;28;20482;-15
2022/05/06 07:48:13;;;;;;;23.83;15.98;;;14.80;89.20;;;;;;4974640;28;20026;-15
2022/05/06 07:50:44;;;;;;;26.55;16.52;;;14.80;89.00;;;;;;4975349;28;20038;-16
2022/05/06 07:53:15;;;;;;;24.10;16.55;;;14.90;88.90;;;;;;4975176;28;20106;-15
2022/05/06 07:55:41;;;;;;;22.80;16.17;;;14.90;88.50;;;;;;4974535;28;20030;-15
2022/05/06 07:58:07;;;;;;;23.40;16.17;;;15.00;89.00;;;;;;4974487;28;20471;-14
2022/05/06 08:00:34;;;;;;;22.50;16.35;;;15.10;89.10;;;;;;4974319;28;20483;-16
2022/05/06 08:05:47;;;;;;;23.02;15.85;;;15.30;88.30;;;;;;4974743;28;20398;-15
2022/05/06 08:08:14;;;;;;;24.83;16.48;;;15.30;87.90;;;;;;4974215;28;20046;-24
2022/05/06 08:10:40;;;;;;;26.67;16.85;;;15.40;88.00;;;;;;4974653;28;20034;-15
2022/05/06 08:13:06;;;;;;;23.27;16.70;;;15.40;87.60;;;;;;4974560;28;20057;-15
2022/05/06 08:15:33;;;;;;;24.23;16.92;;;15.40;87.80;;;;;;4974340;28;20562;-14
2022/05/06 08:17:59;;;;;;;25.25;17.10;;;15.40;87.40;;;;;;4974592;28;20026;-15
2022/05/06 08:20:25;;;;;;;24.38;17.20;;;15.40;87.20;;;;;;4974370;28;20031;-15
2022/05/06 08:22:51;;;;;;;24.58;17.08;;;15.50;87.40;;;;;;4974221;28;20022;-16
2022/05/06 08:25:17;;;;;;;22.77;16.52;;;15.60;87.90;;;;;;4974198;28;20034;-15
2022/05/06 08:27:44;;;;;;;24.35;16.45;;;15.70;87.50;;;;;;4976424;28;20039;-14
2022/05/06 08:30:12;;;;;;;22.13;15.77;;;15.80;87.30;;;;;;4978349;28;20027;-14
2022/05/06 08:32:39;;;;;;;22.70;15.93;;;15.90;87.40;;;;;;4978137;28;20107;-15
2022/05/06 08:35:07;;;;;;;21.83;15.05;;;16.00;87.10;;;;;;4978493;28;20491;-15
2022/05/06 08:37:41;;;;;;;20.10;14.40;;;16.20;86.80;;;;;;4978208;28;20042;-14
2022/05/06 08:40:15;;;;;;;25.88;16.58;;;16.30;86.20;;;;;;4978267;28;20043;-15
2022/05/06 08:42:41;;;;;;;21.73;15.40;;;16.40;84.20;;;;;;4978231;28;20022;-15
2022/05/06 08:50:50;;;;;;;19.88;14.60;;;16.40;84.80;;;;;;4978035;28;20541;-15
2022/05/06 08:53:17;;;;;;;19.98;14.15;;;16.40;84.30;;;;;;4978068;28;20030;-15
2022/05/06 08:55:43;;;;;;;17.42;13.27;;;16.40;84.10;;;;;;4978050;28;20027;-15
2022/05/06 08:58:09;;;;;;;24.63;14.77;;;16.30;84.10;;;;;;4977646;28;20023;-14
2022/05/06 09:00:36;;;;;;;20.45;15.25;;;16.40;84.50;;;;;;4977381;28;20030;-15
2022/05/06 09:03:02;;;;;;;22.27;15.75;;;16.30;83.30;;;;;;4978455;28;20031;-15
2022/05/06 09:05:28;;;;;;;21.77;14.98;;;16.30;83.60;;;;;;4977875;28;20030;-14
2022/05/06 09:07:54;;;;;;;22.45;15.10;;;16.30;84.10;;;;;;4977736;28;20039;-16
2022/05/06 09:10:21;;;;;;;21.83;15.85;;;16.30;83.50;;;;;;4977226;28;20031;-16
2022/05/06 09:12:51;;;;;;;24.00;15.05;;;16.30;84.30;;;;;;4977591;28;20077;-15
2022/05/06 09:18:03;;;;;;;19.55;13.75;;;16.40;84.10;;;;;;4977402;28;20090;-16
2022/05/06 09:20:30;;;;;;;21.60;14.82;;;16.30;83.10;;;;;;4977126;28;20080;-15
2022/05/06 09:22:57;;;;;;;20.92;14.25;;;16.30;83.70;;;;;;4977575;28;20445;-16
2022/05/06 09:25:37;;;;;;;21.52;14.35;;;16.20;82.70;;;;;;4977186;28;20035;-15
2022/05/06 09:28:05;;;;;;;22.88;15.32;;;16.00;83.80;;;;;;5059696;23;20077;-16
2022/05/06 09:30:33;;;;;;;21.23;14.43;;;15.90;84.50;;;;;;4976964;28;20370;-16
2022/05/06 09:32:59;;;;;;;19.73;14.63;;;15.70;85.00;;;;;;4977335;28;20034;-16
2022/05/06 09:35:32;;;;;;;22.08;15.02;;;15.70;85.20;;;;;;4977001;28;20027;-16
2022/05/06 09:38:03;;;;;;;19.50;14.35;;;15.60;85.60;;;;;;4976718;28;20034;-17
2022/05/06 09:40:30;;;;;;;20.13;14.20;;;15.50;85.80;;;;;;4976777;28;20042;-16
2022/05/06 09:42:58;;;;;;;20.75;14.10;;;15.40;85.20;;;;;;4977582;28;20023;-15
2022/05/06 09:45:31;;;;;;;21.83;15.07;;;15.40;85.30;;;;;;4977055;28;20030;-16
2022/05/06 09:48:03;;;;;;;25.75;16.05;;;15.40;85.60;;;;;;4976693;28;20648;-16
2022/05/06 09:50:40;;;;;;;20.88;14.80;;;15.40;86.30;;;;;;4976645;28;20486;-15
2022/05/06 09:53:08;;;;;;;23.10;14.80;;;15.40;85.60;;;;;;4976986;28;20041;-16
2022/05/06 09:55:39;;;;;;;20.02;14.90;;;15.50;86.00;;;;;;4976652;28;20445;-15
2022/05/06 09:58:06;;;;;;;21.80;15.02;;;15.60;85.90;;;;;;4976734;28;20046;-15
2022/05/06 10:00:36;;;;;;;22.05;15.60;;;15.60;86.20;;;;;;4976439;28;20029;-16
2022/05/06 10:03:03;;;;;;;19.48;13.43;;;15.80;86.20;;;;;;4976558;28;20034;-15
2022/05/06 10:05:30;;;;;;;18.58;14.60;;;15.80;84.40;;;;;;4976454;28;20080;-15
2022/05/06 10:08:21;;;;;;;18.58;13.95;;;15.90;85.00;;;;;;4976632;28;20114;-15
2022/05/06 10:10:56;;;;;;;19.42;13.35;;;15.90;84.90;;;;;;4976165;28;20039;-16
2022/05/06 10:13:25;;;;;;;17.67;13.32;;;16.00;84.90;;;;;;4976292;28;20030;-15
2022/05/06 10:15:53;;;;;;;19.25;13.82;;;16.10;84.00;;;;;;4976251;28;20046;-16
2022/05/06 10:18:40;;;;;;;15.20;11.68;;;16.20;83.90;;;;;;4976013;28;20030;-15
2022/05/06 10:21:16;;;;;;;17.23;12.35;;;16.10;82.90;;;;;;4976533;28;20531;-16
2022/05/06 10:23:53;;;;;;;16.35;12.73;;;16.20;83.60;;;;;;4976168;28;20027;-16
2022/05/06 10:26:42;;;;;;;19.10;12.13;;;16.20;84.00;;;;;;4975627;28;20027;-15
2022/05/06 10:32:27;;;;;;;14.10;9.03;;;16.50;83.90;;;;;;4976357;28;20065;-15
2022/05/06 10:34:59;;;;;;;15.55;9.82;;;16.70;80.80;;;;;;4976682;28;20030;-16
2022/05/06 10:37:36;;;;;;;12.68;9.45;;;16.90;81.50;;;;;;4976111;28;20035;-15
2022/05/06 10:40:23;;;;;;;11.23;8.27;;;17.00;79.50;;;;;;4976179;28;20114;-15
2022/05/06 10:42:50;;;;;;;12.18;8.30;;;17.10;79.80;;;;;;4975672;28;20054;-15
2022/05/06 10:45:29;;;;;;;12.30;7.70;;;17.10;78.70;;;;;;4975619;28;20041;-15
2022/05/06 10:47:56;;;;;;;12.82;8.57;;;17.10;79.20;;;;;;4976083;28;20158;-16
2022/05/06 10:50:25;;;;;;;11.55;7.80;;;16.90;79.10;;;;;;4974761;28;20030;-15
2022/05/06 10:52:52;;;;;;;11.23;8.02;;;16.90;79.80;;;;;;4976210;28;20114;-15
2022/05/06 10:55:22;;;;;;;12.15;7.85;;;16.90;79.80;;;;;;4975780;28;20058;-15
2022/05/06 10:57:59;;;;;;;12.05;8.43;;;16.90;80.00;;;;;;4975458;28;20026;-16
2022/05/06 11:00:27;;;;;;;11.43;8.10;;;16.90;80.80;;;;;;4974015;28;20031;-16
2022/05/06 11:02:55;;;;;;;10.52;7.22;;;16.80;80.30;;;;;;4975683;28;20102;-16
2022/05/06 11:05:24;;;;;;;10.80;7.85;;;16.70;79.80;;;;;;4975339;28;20038;-15
2022/05/06 11:07:55;;;;;;;11.77;8.10;;;16.50;80.90;;;;;;4975544;28;20035;-15
2022/05/06 11:10:25;;;;;;;11.73;7.90;;;16.50;81.10;;;;;;4975091;28;20082;-15
2022/05/06 11:12:58;;;;;;;10.57;8.30;;;16.50;81.80;;;;;;4975434;28;20031;-16
2022/05/06 11:15:35;;;;;;;12.65;9.20;;;16.50;81.10;;;;;;4975576;28;20059;-16
2022/05/06 11:18:06;;;;;;;12.18;8.25;;;16.40;81.00;;;;;;4975288;28;20500;-16
2022/05/06 11:20:37;;;;;;;14.10;9.20;;;16.40;81.40;;;;;;4975135;28;20027;-16
2022/05/06 11:23:08;;;;;;;11.70;8.93;;;16.40;81.90;;;;;;4975398;28;20022;-16
2022/05/06 11:25:36;;;;;;;13.02;9.60;;;16.40;82.40;;;;;;4975304;28;20054;-16
2022/05/06 11:28:09;;;;;;;14.20;9.15;;;16.40;82.30;;;;;;4974813;28;20109;-16
2022/05/06 11:30:35;;;;;;;14.15;9.68;;;16.20;82.20;;;;;;4975147;28;20027;-15
2022/05/06 11:33:03;;;;;;;12.73;8.70;;;16.20;83.30;;;;;;4975110;28;20019;-15
2022/05/06 11:35:33;;;;;;;11.90;9.00;;;16.10;82.90;;;;;;4975002;28;20474;-16
2022/05/06 11:38:00;;;;;;;12.05;9.10;;;16.10;83.60;;;;;;4975084;28;20031;-15
2022/05/06 11:42:59;;;;;;;13.60;9.52;;;15.90;84.40;;;;;;4975011;28;20102;-14
2022/05/06 11:48:11;;;;;;;17.02;10.57;;;15.90;84.00;;;;;;4974933;28;20446;-14
2022/05/06 11:50:39;;;;;;;14.98;10.38;;;15.90;84.90;;;;;;4974374;28;20027;-14
2022/05/06 11:53:10;;;;;;;12.73;9.50;;;15.90;84.80;;;;;;4974537;28;20031;-14
2022/05/06 11:55:38;;;;;;;16.90;11.07;;;15.90;84.70;;;;;;4974596;28;20033;-14
2022/05/06 11:58:05;;;;;;;15.95;10.82;;;15.90;84.80;;;;;;4974451;28;20026;-15
2022/05/06 12:00:32;;;;;;;19.08;11.38;;;15.80;85.10;;;;;;4974387;28;20029;-15
2022/05/06 12:03:04;;;;;;;13.55;10.13;;;15.90;86.30;;;;;;4974866;28;20104;-14
2022/05/06 12:05:35;;;;;;;13.20;8.27;;;15.90;85.80;;;;;;4974764;28;20027;-15
2022/05/06 12:08:01;;;;;;;13.50;7.53;;;15.90;84.90;;;;;;4974569;28;20693;-15
2022/05/06 12:10:27;;;;;;;12.18;6.70;;;15.90;84.70;;;;;;4972990;28;20474;-14
2022/05/06 12:12:58;;;;;;;11.68;7.65;;;15.90;84.60;;;;;;4974533;28;20399;-15
2022/05/06 12:15:33;;;;;;;11.65;7.85;;;15.90;84.40;;;;;;4973099;28;20034;-15
2022/05/06 12:18:02;;;;;;;9.73;7.07;;;15.80;84.90;;;;;;4974758;28;20170;-15
2022/05/06 12:20:36;;;;;;;12.90;7.20;;;15.80;84.20;;;;;;4974124;28;20490;-15
2022/05/06 12:23:05;;;;;;;9.98;7.32;;;15.70;83.70;;;;;;4974531;28;20395;-15
2022/05/06 12:25:35;;;;;;;11.77;7.60;;;15.70;84.70;;;;;;4974428;28;20023;-15
2022/05/06 12:28:19;;;;;;;10.45;7.15;;;15.60;85.00;;;;;;4975193;28;20129;-15
2022/05/06 12:30:46;;;;;;;11.18;7.35;;;15.60;85.30;;;;;;4974534;28;20110;-15
2022/05/06 12:33:14;;;;;;;11.88;8.27;;;15.70;85.80;;;;;;4974369;28;20015;-15
2022/05/06 12:36:08;;;;;;;12.57;8.50;;;15.80;86.60;;;;;;4974303;28;20399;-15
2022/05/06 12:38:40;;;;;;;;;;;15.90;87.10;;;;;;4973722;28;20046;-15
2022/05/06 12:41:33;;;;;;;12.45;8.13;;;16.10;87.10;;;;;;4974327;28;20277;-16
2022/05/06 12:44:21;;;;;;;13.13;8.02;;;16.30;86.60;;;;;;4974218;28;20031;-16
2022/05/06 12:46:49;;;;;;;13.63;9.00;;;16.50;85.30;;;;;;4974934;28;20386;-14
2022/05/06 12:52:04;;;;;;;12.93;9.45;;;16.60;83.40;;;;;;4974338;28;20084;-15
2022/05/06 12:54:32;;;;;;;12.55;8.88;;;16.60;84.20;;;;;;4973811;28;20505;-15
2022/05/06 12:56:58;;;;;;;14.48;9.57;;;16.60;84.30;;;;;;4973827;28;20081;-16
2022/05/06 12:59:25;;;;;;;12.02;9.18;;;16.50;83.60;;;;;;4974222;28;20023;-15
2022/05/06 13:01:52;;;;;;;14.93;10.18;;;16.40;83.70;;;;;;4973903;28;20027;-14
2022/05/06 13:04:18;;;;;;;13.35;9.60;;;16.40;84.40;;;;;;4973747;28;20039;-14
2022/05/06 13:06:45;;;;;;;15.57;10.43;;;16.30;84.40;;;;;;4974300;28;20030;-14
2022/05/06 13:09:12;;;;;;;15.80;9.93;;;16.20;85.40;;;;;;4973981;28;20035;-15
2022/05/06 13:11:38;;;;;;;16.85;10.10;;;16.00;84.60;;;;;;4974218;28;20110;-15
2022/05/06 13:14:04;;;;;;;14.55;7.95;;;16.00;84.70;;;;;;4975082;28;20170;-14
2022/05/06 13:16:31;;;;;;;12.80;7.85;;;16.00;84.30;;;;;;4975935;28;20038;-15
2022/05/06 13:18:57;;;;;;;14.30;7.85;;;16.00;83.80;;;;;;4977266;28;20035;-14
2022/05/06 13:21:23;;;;;;;11.25;7.75;;;15.90;84.00;;;;;;4977259;28;20037;-14
2022/05/06 13:23:49;;;;;;;12.05;7.72;;;15.80;84.70;;;;;;4975953;28;20089;-14